Time;durP1;ratioP1;P1;durP2;ratioP2;P2;SDS_P1;SDS_P2;PMS_P1;PMS_P2;Temp;Humidity;BMP_temperature;BMP_pressure;BME280_temperature;BME280_humidity;BME280_pressure;Samples;Min_cycle;Max_cycle;Signal;HPM_P1;HPM_P2
2024/01/09 00:02:16;;;;;;;12.60;6.90;;;;;;;18.19;43.17;101239.78;4902619;29;20192;-79
2024/01/09 00:04:41;;;;;;;13.60;7.00;;;;;;;18.20;43.40;101233.72;4882121;29;20216;-79
2024/01/09 00:07:07;;;;;;;11.63;7.13;;;;;;;18.35;42.98;101250.19;4892887;29;20216;-79
2024/01/09 00:09:35;;;;;;;11.87;6.50;;;;;;;17.83;42.55;101240.59;4921267;29;20211;-81
2024/01/09 00:12:01;;;;;;;17.37;10.47;;;;;;;17.15;37.68;101249.78;4938050;29;20209;-79
2024/01/09 00:14:26;;;;;;;16.43;11.07;;;;;;;16.78;38.87;101262.19;4909789;29;20479;-80
2024/01/09 00:16:52;;;;;;;14.60;10.00;;;;;;;17.08;34.76;101252.38;4923120;29;20212;-80
2024/01/09 00:19:17;;;;;;;14.63;10.13;;;;;;;17.30;36.40;101249.16;4881497;29;20718;-76
2024/01/09 00:21:42;;;;;;;14.17;9.90;;;;;;;17.42;37.65;101263.53;4919736;29;20866;-77
2024/01/09 00:24:08;;;;;;;14.73;9.93;;;;;;;17.52;38.47;101247.97;4897367;29;20220;-77
2024/01/09 00:26:43;;;;;;;13.00;9.70;;;;;;;17.59;39.43;101253.94;4917669;29;20211;-76
2024/01/09 00:29:09;;;;;;;13.10;8.90;;;;;;;17.66;40.08;101249.31;4872127;29;20319;-76
2024/01/09 00:31:34;;;;;;;12.30;8.93;;;;;;;17.65;40.29;101256.22;4926573;29;21298;-76
2024/01/09 00:34:00;;;;;;;15.23;9.70;;;;;;;17.65;41.40;101255.41;4886178;29;20234;-76
2024/01/09 00:36:25;;;;;;;15.50;9.30;;;;;;;17.67;41.73;101247.31;4903207;29;20214;-76
2024/01/09 00:38:51;;;;;;;14.70;9.47;;;;;;;17.66;42.43;101252.19;4908168;29;20300;-76
2024/01/09 00:41:16;;;;;;;12.93;7.77;;;;;;;17.70;42.37;101250.28;4924628;29;20199;-76
2024/01/09 00:43:41;;;;;;;16.53;8.53;;;;;;;17.77;41.82;101246.88;4887392;28;20220;-74
2024/01/09 00:46:07;;;;;;;12.57;8.40;;;;;;;17.72;42.48;101247.94;4917212;29;20211;-72
2024/01/09 00:48:32;;;;;;;14.87;8.60;;;;;;;17.78;42.48;101240.81;4902763;29;20209;-73
2024/01/09 00:50:58;;;;;;;12.80;8.27;;;;;;;17.71;43.22;101249.09;4939324;29;20243;-73
2024/01/09 00:53:23;;;;;;;11.03;7.70;;;;;;;17.63;43.69;101244.34;4916873;29;20218;-73
2024/01/09 00:55:48;;;;;;;14.33;8.00;;;;;;;17.63;43.42;101247.19;4915107;29;20228;-73
2024/01/09 00:58:14;;;;;;;13.57;7.93;;;;;;;17.59;44.05;101249.06;4910859;29;20204;-73
2024/01/09 01:00:39;;;;;;;11.73;7.70;;;;;;;17.56;44.73;101254.66;4887907;29;20215;-73
2024/01/09 01:03:05;;;;;;;11.33;7.07;;;;;;;17.56;44.33;101258.34;4904543;29;20204;-73
2024/01/09 01:05:31;;;;;;;9.37;6.67;;;;;;;17.57;44.18;101256.31;4898311;29;20564;-75
2024/01/09 01:07:57;;;;;;;11.07;7.10;;;;;;;17.54;44.84;101255.00;4908385;29;20208;-75
2024/01/09 01:10:22;;;;;;;9.30;6.80;;;;;;;17.62;44.74;101256.09;4916264;29;20475;-75
2024/01/09 01:12:47;;;;;;;11.63;7.70;;;;;;;17.62;44.38;101265.53;4909950;29;20204;-75
2024/01/09 01:15:13;;;;;;;11.10;7.60;;;;;;;17.58;44.54;101260.84;4922931;29;20237;-75
2024/01/09 01:17:39;;;;;;;12.17;7.20;;;;;;;17.62;44.77;101267.53;4894941;29;20211;-75
2024/01/09 01:20:05;;;;;;;10.77;6.60;;;;;;;17.66;44.68;101272.16;4902712;29;20216;-75
2024/01/09 01:22:31;;;;;;;9.63;6.53;;;;;;;17.65;44.36;101281.13;4886881;29;20303;-72
2024/01/09 01:24:56;;;;;;;10.00;6.90;;;;;;;17.63;44.82;101277.75;4899231;29;20536;-70
2024/01/09 01:27:22;;;;;;;15.03;7.93;;;;;;;17.64;45.17;101273.72;4890942;29;20208;-69
2024/01/09 01:29:47;;;;;;;10.70;6.30;;;;;;;17.58;45.34;101273.09;4892174;29;20620;-69
2024/01/09 01:32:13;;;;;;;10.73;6.87;;;;;;;17.53;45.69;101279.03;4917945;29;20743;-69
2024/01/09 01:34:38;;;;;;;13.57;6.80;;;;;;;17.60;45.15;101279.28;4901842;29;20214;-69
2024/01/09 01:37:05;;;;;;;10.90;7.20;;;;;;;17.56;44.97;101278.31;4905642;29;20654;-70
2024/01/09 01:39:30;;;;;;;13.30;6.17;;;;;;;17.56;45.08;101274.66;4906101;29;20208;-69
2024/01/09 01:41:56;;;;;;;11.83;6.77;;;;;;;17.54;45.50;101280.69;4897926;29;20455;-69
2024/01/09 01:44:22;;;;;;;9.30;6.47;;;;;;;17.65;44.86;101273.38;4918220;29;20219;-71
2024/01/09 01:46:47;;;;;;;10.87;6.47;;;;;;;17.61;45.05;101283.00;4916619;29;20290;-70
2024/01/09 01:49:13;;;;;;;10.83;6.57;;;;;;;17.57;45.33;101288.56;4901207;29;21607;-70
2024/01/09 01:51:39;;;;;;;14.60;6.93;;;;;;;17.55;45.39;101275.84;4935039;29;20207;-72
2024/01/09 01:54:05;;;;;;;9.77;5.93;;;;;;;17.57;45.96;101282.88;4915824;29;20207;-71
2024/01/09 01:56:30;;;;;;;9.93;6.50;;;;;;;17.54;45.09;101283.56;4950049;28;20465;-71
2024/01/09 01:58:57;;;;;;;11.47;6.10;;;;;;;17.63;45.28;101275.75;4934611;29;20470;-72
2024/01/09 02:01:22;;;;;;;10.30;6.60;;;;;;;17.53;45.81;101270.47;4902268;29;21001;-71
2024/01/09 02:03:48;;;;;;;9.13;6.00;;;;;;;17.58;45.42;101273.09;4920006;29;20207;-71
2024/01/09 02:06:13;;;;;;;8.73;6.03;;;;;;;17.56;46.05;101268.94;4919500;28;20258;-70
2024/01/09 02:08:39;;;;;;;10.63;7.37;;;;;;;17.56;45.89;101271.78;4948426;28;20262;-70
2024/01/09 02:11:04;;;;;;;10.20;6.77;;;;;;;17.54;45.35;101269.28;4930653;29;20743;-70
2024/01/09 02:13:29;;;;;;;11.80;6.73;;;;;;;17.53;45.56;101278.19;4900586;29;20598;-70
2024/01/09 02:15:55;;;;;;;12.70;7.17;;;;;;;17.51;45.94;101280.56;4917837;29;20966;-71
2024/01/09 02:18:20;;;;;;;10.57;6.57;;;;;;;17.55;45.38;101270.13;4932503;29;20214;-70
2024/01/09 02:20:46;;;;;;;8.63;5.80;;;;;;;17.55;45.84;101276.66;4918667;29;20218;-71
2024/01/09 02:23:11;;;;;;;9.30;6.27;;;;;;;17.53;46.11;101273.31;4917811;28;20222;-70
2024/01/09 02:25:37;;;;;;;9.40;6.43;;;;;;;17.56;45.74;101275.47;4914715;29;20589;-70
2024/01/09 02:28:15;;;;;;;10.30;6.67;;;;;;;17.51;46.22;101280.56;4938839;28;20206;-71
2024/01/09 02:30:40;;;;;;;7.50;5.90;;;;;;;17.53;46.00;101281.03;4937708;28;20209;-70
2024/01/09 02:33:09;;;;;;;10.33;6.37;;;;;;;17.54;46.36;101283.56;4924148;28;20454;-70
2024/01/09 02:35:34;;;;;;;10.20;5.93;;;;;;;17.51;45.77;101275.69;4955376;28;20254;-73
2024/01/09 02:38:00;;;;;;;8.70;5.93;;;;;;;17.52;45.83;101280.22;4916649;29;20847;-74
2024/01/09 02:40:25;;;;;;;11.67;6.97;;;;;;;17.48;46.20;101269.84;4917280;29;20274;-74
2024/01/09 02:42:51;;;;;;;15.57;5.87;;;;;;;17.49;45.79;101269.50;4917159;29;21203;-74
2024/01/09 02:45:17;;;;;;;13.40;6.90;;;;;;;17.51;46.11;101277.72;4917468;29;20297;-73
2024/01/09 02:47:42;;;;;;;10.40;6.73;;;;;;;17.53;46.09;101270.47;4949483;28;20558;-73
2024/01/09 02:50:08;;;;;;;13.30;6.93;;;;;;;17.49;46.55;101268.66;4933287;29;20258;-73
2024/01/09 02:52:33;;;;;;;12.60;7.50;;;;;;;17.49;45.89;101268.66;4908475;29;20294;-74
2024/01/09 02:54:59;;;;;;;13.60;6.63;;;;;;;17.51;46.08;101274.88;4927439;29;20262;-73
2024/01/09 02:57:24;;;;;;;13.60;6.63;;;;;;;17.46;46.08;101261.63;4890626;29;20205;-74
2024/01/09 02:59:49;;;;;;;16.00;6.77;;;;;;;17.51;46.34;101261.41;4919756;29;20232;-74
2024/01/09 03:02:15;;;;;;;18.33;7.23;;;;;;;17.49;46.31;101262.94;4899462;29;20262;-74
2024/01/09 03:04:40;;;;;;;17.53;7.17;;;;;;;17.49;45.95;101263.78;4923605;29;20633;-74
2024/01/09 03:07:06;;;;;;;15.53;7.97;;;;;;;17.51;45.70;101252.84;4899452;29;20752;-74
2024/01/09 03:09:32;;;;;;;16.57;6.70;;;;;;;17.48;45.76;101262.13;4901431;29;20203;-74
2024/01/09 03:11:57;;;;;;;17.57;6.90;;;;;;;17.48;46.54;101259.28;4898136;29;20218;-74
2024/01/09 03:14:23;;;;;;;16.37;6.90;;;;;;;17.43;46.15;101262.34;4898536;29;20444;-74
2024/01/09 03:16:48;;;;;;;18.30;6.83;;;;;;;17.44;46.92;101252.59;4884180;29;20669;-74
2024/01/09 03:19:14;;;;;;;19.87;7.20;;;;;;;17.40;46.18;101271.59;4884367;29;20753;-74
2024/01/09 03:21:40;;;;;;;13.93;6.47;;;;;;;17.40;46.40;101263.03;4900482;29;20203;-74
2024/01/09 03:24:05;;;;;;;16.23;7.20;;;;;;;17.44;46.31;101261.16;4912086;29;20468;-74
2024/01/09 03:26:31;;;;;;;19.23;6.97;;;;;;;17.42;46.32;101254.97;4900873;29;20679;-74
2024/01/09 03:28:57;;;;;;;18.63;6.97;;;;;;;17.41;46.16;101255.31;4916381;29;20199;-74
2024/01/09 03:31:23;;;;;;;19.47;6.97;;;;;;;17.46;46.12;101257.94;4897318;29;20251;-74
2024/01/09 03:33:49;;;;;;;20.97;7.40;;;;;;;17.45;46.18;101257.09;4895055;29;20467;-74
2024/01/09 03:36:15;;;;;;;21.73;7.37;;;;;;;17.47;45.88;101257.59;4914246;29;20453;-74
2024/01/09 03:38:41;;;;;;;27.10;9.40;;;;;;;17.42;46.30;101256.97;4933682;28;20203;-73
2024/01/09 03:41:06;;;;;;;14.53;7.27;;;;;;;17.41;46.52;101244.72;4917379;29;20225;-74
2024/01/09 03:43:32;;;;;;;18.90;7.33;;;;;;;17.47;46.51;101254.75;4914939;29;21164;-74
2024/01/09 03:45:57;;;;;;;14.50;7.53;;;;;;;17.43;46.29;101253.78;4912499;29;20210;-72
2024/01/09 03:48:23;;;;;;;19.27;7.33;;;;;;;17.47;46.13;101254.75;4911782;29;20207;-72
2024/01/09 03:50:48;;;;;;;14.50;7.90;;;;;;;17.40;46.47;101248.75;4914634;29;20223;-73
2024/01/09 03:53:14;;;;;;;21.40;7.30;;;;;;;17.45;46.30;101248.53;4916127;29;20210;-72
2024/01/09 03:55:39;;;;;;;27.27;7.93;;;;;;;17.47;46.28;101254.75;4928859;29;20211;-73
2024/01/09 03:58:05;;;;;;;17.57;7.53;;;;;;;17.44;46.30;101244.03;4925971;29;20215;-73
2024/01/09 04:00:30;;;;;;;16.47;7.30;;;;;;;17.42;46.25;101245.56;4916472;28;20619;-73
2024/01/09 04:02:56;;;;;;;15.13;7.97;;;;;;;17.44;46.47;101241.16;4916062;29;20222;-72
2024/01/09 04:05:21;;;;;;;15.87;6.80;;;;;;;17.45;46.10;101234.25;4931844;29;20757;-73
2024/01/09 04:07:46;;;;;;;18.93;7.40;;;;;;;17.44;46.10;101249.72;4910928;29;20203;-73
2024/01/09 04:10:12;;;;;;;19.17;7.37;;;;;;;17.40;46.58;101248.75;4931721;29;20699;-73
2024/01/09 04:12:37;;;;;;;17.17;6.50;;;;;;;17.42;46.35;101237.00;4916628;29;20207;-73
2024/01/09 04:15:03;;;;;;;16.07;8.13;;;;;;;17.39;46.31;101246.25;4931580;28;20199;-73
2024/01/09 04:17:29;;;;;;;16.47;6.67;;;;;;;17.40;46.69;101248.75;4945036;28;20204;-73
2024/01/09 04:19:54;;;;;;;17.47;6.83;;;;;;;17.40;46.14;101245.91;4916199;29;20450;-73
2024/01/09 04:22:20;;;;;;;24.57;7.90;;;;;;;17.42;46.29;101243.56;4932247;29;20570;-73
2024/01/09 04:24:45;;;;;;;15.63;6.97;;;;;;;17.40;46.50;101239.38;4917579;29;20226;-73
2024/01/09 04:27:11;;;;;;;12.40;7.20;;;;;;;17.46;46.19;101241.63;4884386;29;20257;-73
2024/01/09 04:29:36;;;;;;;14.37;6.90;;;;;;;17.41;46.87;101250.41;4929926;29;20695;-73
2024/01/09 04:32:02;;;;;;;12.00;6.73;;;;;;;17.38;46.84;101244.56;4910461;29;20751;-73
2024/01/09 04:34:28;;;;;;;17.20;6.90;;;;;;;17.39;46.57;101235.69;4930839;29;20230;-73
2024/01/09 04:36:53;;;;;;;17.17;8.20;;;;;;;17.40;46.22;101248.75;4915383;29;20208;-73
2024/01/09 04:39:19;;;;;;;16.43;7.63;;;;;;;17.40;46.51;101243.06;4905659;29;20459;-73
2024/01/09 04:41:44;;;;;;;18.23;7.50;;;;;;;17.38;46.69;101253.13;4941893;28;20345;-74
2024/01/09 04:44:10;;;;;;;12.90;6.90;;;;;;;17.35;46.76;101248.94;4934162;29;21022;-73
2024/01/09 04:46:35;;;;;;;16.03;7.23;;;;;;;17.38;46.54;101250.25;4901751;29;20202;-73
2024/01/09 04:49:03;;;;;;;18.07;7.80;;;;;;;17.39;46.85;101243.41;4931660;28;20355;-73
2024/01/09 04:51:30;;;;;;;14.13;7.17;;;;;;;17.37;46.27;101242.88;4919645;29;20210;-73
2024/01/09 04:53:55;;;;;;;13.90;6.43;;;;;;;17.37;46.56;101242.88;4929068;29;20482;-72
2024/01/09 04:56:21;;;;;;;17.47;7.43;;;;;;;17.37;46.85;101240.88;4936092;29;20459;-74
2024/01/09 04:58:46;;;;;;;11.77;6.90;;;;;;;17.38;46.78;101245.41;4926001;28;20690;-74
2024/01/09 05:01:12;;;;;;;18.10;6.97;;;;;;;17.34;46.55;101244.44;4937700;28;20258;-74
2024/01/09 05:03:37;;;;;;;10.53;5.97;;;;;;;17.37;46.66;101242.88;4921614;29;20245;-74
2024/01/09 05:06:03;;;;;;;10.27;5.90;;;;;;;17.38;46.66;101244.56;4940522;29;20211;-74
2024/01/09 05:08:28;;;;;;;13.40;6.70;;;;;;;17.37;47.17;101254.31;4935423;29;20214;-74
2024/01/09 05:10:54;;;;;;;21.20;7.83;;;;;;;17.38;46.56;101248.25;4920769;28;20202;-74
2024/01/09 05:13:19;;;;;;;15.53;7.87;;;;;;;17.37;46.27;101242.88;4935790;28;20282;-74
2024/01/09 05:15:45;;;;;;;17.17;7.73;;;;;;;17.33;46.93;101245.63;4921949;29;20772;-73
2024/01/09 05:18:11;;;;;;;16.83;7.10;;;;;;;17.39;46.34;101247.09;4918826;29;20888;-74
2024/01/09 05:20:36;;;;;;;12.47;7.40;;;;;;;17.42;46.48;101237.84;4951771;28;20195;-73
2024/01/09 05:23:02;;;;;;;13.50;7.40;;;;;;;17.45;46.34;101230.59;4921262;28;20450;-73
2024/01/09 05:25:28;;;;;;;15.03;7.43;;;;;;;17.40;46.46;101234.47;4934445;29;20222;-74
2024/01/09 05:27:53;;;;;;;15.43;7.07;;;;;;;17.39;46.49;101231.97;4932294;29;20451;-74
2024/01/09 05:30:19;;;;;;;16.87;8.63;;;;;;;17.38;46.55;101238.84;4936652;29;20262;-74
2024/01/09 05:32:44;;;;;;;15.97;7.20;;;;;;;17.41;46.31;101243.91;4905212;29;20714;-73
2024/01/09 05:35:10;;;;;;;13.23;6.80;;;;;;;17.41;46.59;101241.84;4923291;28;20229;-74
2024/01/09 05:37:35;;;;;;;13.60;7.40;;;;;;;17.43;46.37;101235.81;4919847;28;20634;-73
2024/01/09 05:40:01;;;;;;;13.33;6.87;;;;;;;17.39;46.60;101240.53;4932477;28;20206;-73
2024/01/09 05:42:26;;;;;;;13.93;7.43;;;;;;;17.39;46.54;101244.25;4918888;29;20226;-73
2024/01/09 05:44:52;;;;;;;12.30;6.63;;;;;;;17.45;46.42;101245.69;4906802;29;20224;-74
2024/01/09 05:47:18;;;;;;;13.87;7.00;;;;;;;17.39;47.15;101249.94;4945413;28;20222;-74
2024/01/09 05:49:43;;;;;;;19.87;6.83;;;;;;;17.38;46.23;101251.09;4919617;29;20505;-73
2024/01/09 05:52:08;;;;;;;11.90;7.00;;;;;;;17.36;46.50;101239.19;4932095;29;20203;-73
2024/01/09 05:54:34;;;;;;;12.70;7.73;;;;;;;17.37;46.65;101249.44;4919068;29;20623;-73
2024/01/09 05:56:59;;;;;;;12.50;6.33;;;;;;;17.43;46.30;101244.38;4918126;29;20233;-74
2024/01/09 05:59:25;;;;;;;16.90;6.90;;;;;;;17.40;46.54;101259.34;4919747;29;20211;-74
2024/01/09 06:01:50;;;;;;;16.37;7.30;;;;;;;17.40;46.67;101248.75;4910077;29;20207;-74
2024/01/09 06:04:16;;;;;;;14.60;6.93;;;;;;;17.39;46.75;101244.25;4947516;28;20275;-74
2024/01/09 06:06:41;;;;;;;14.20;7.30;;;;;;;17.38;46.49;101245.41;4916734;29;20213;-74
2024/01/09 06:09:08;;;;;;;12.30;7.33;;;;;;;17.37;47.22;101254.31;4949971;29;20213;-74
2024/01/09 06:11:33;;;;;;;20.47;6.87;;;;;;;17.40;46.22;101263.03;4934877;29;20808;-74
2024/01/09 06:13:59;;;;;;;18.30;7.00;;;;;;;17.41;46.29;101250.41;4910914;29;20467;-74
2024/01/09 06:16:24;;;;;;;12.80;6.87;;;;;;;17.38;46.56;101251.09;4907931;29;20211;-74
2024/01/09 06:18:50;;;;;;;16.83;7.13;;;;;;;17.41;46.58;101252.47;4917003;29;20203;-74
2024/01/09 06:21:15;;;;;;;14.43;6.70;;;;;;;17.39;46.35;101252.81;4919952;29;20219;-74
2024/01/09 06:23:40;;;;;;;12.93;7.10;;;;;;;17.40;46.73;101253.66;4937761;29;20214;-74
2024/01/09 06:26:06;;;;;;;13.33;7.10;;;;;;;17.39;46.45;101251.97;4919312;29;20203;-74
2024/01/09 06:28:32;;;;;;;12.80;6.67;;;;;;;17.39;46.44;101252.81;4916422;29;20289;-75
2024/01/09 06:30:57;;;;;;;16.77;7.00;;;;;;;17.41;46.49;101253.28;4946347;28;20682;-74
2024/01/09 06:33:22;;;;;;;15.13;7.03;;;;;;;17.44;46.27;101257.44;4924632;28;20202;-74
2024/01/09 06:35:48;;;;;;;14.20;7.00;;;;;;;17.44;46.14;101257.44;4939499;29;20233;-74
2024/01/09 06:38:13;;;;;;;14.00;7.17;;;;;;;17.45;46.26;101257.09;4917413;29;20218;-74
2024/01/09 06:40:39;;;;;;;13.00;6.20;;;;;;;17.40;46.23;101254.47;4920564;29;20303;-74
2024/01/09 06:43:05;;;;;;;12.07;6.60;;;;;;;17.36;46.64;101253.47;4901873;29;20218;-74
2024/01/09 06:45:31;;;;;;;15.23;6.97;;;;;;;17.37;46.58;101258.00;4929880;29;20219;-74
2024/01/09 06:47:57;;;;;;;18.17;7.27;;;;;;;17.34;46.56;101258.69;4891799;28;20447;-74
2024/01/09 06:50:22;;;;;;;16.27;7.23;;;;;;;17.41;46.27;101252.47;4916484;29;20231;-74
2024/01/09 06:52:48;;;;;;;13.97;7.30;;;;;;;17.42;47.12;101256.97;4899505;29;20647;-74
2024/01/09 06:55:13;;;;;;;19.93;6.80;;;;;;;17.42;46.39;101259.84;4921211;29;20755;-74
2024/01/09 06:57:39;;;;;;;13.53;6.47;;;;;;;17.44;46.46;101264.00;4934332;29;20671;-75
2024/01/09 07:00:05;;;;;;;15.10;6.70;;;;;;;17.44;46.77;101266.84;4887492;29;20279;-74
2024/01/09 07:02:30;;;;;;;16.10;6.90;;;;;;;17.43;46.99;101255.78;4918577;29;20254;-73
2024/01/09 07:04:56;;;;;;;16.17;7.10;;;;;;;17.43;46.70;101261.50;4892473;29;20879;-74
2024/01/09 07:07:22;;;;;;;13.30;6.80;;;;;;;17.41;46.17;101258.16;4881685;29;20203;-73
2024/01/09 07:09:48;;;;;;;12.67;7.43;;;;;;;17.43;46.39;101261.50;4900863;29;20459;-74
2024/01/09 07:12:16;;;;;;;16.30;7.33;;;;;;;17.39;46.33;101258.50;4915928;29;20218;-74
2024/01/09 07:14:42;;;;;;;19.20;7.20;;;;;;;17.41;46.51;101256.13;4882976;29;20204;-72
2024/01/09 07:17:07;;;;;;;17.30;7.23;;;;;;;17.40;47.13;101265.88;4894704;29;20492;-72
2024/01/09 07:19:33;;;;;;;13.27;7.37;;;;;;;17.40;46.22;101259.34;4914323;29;20203;-73
2024/01/09 07:21:59;;;;;;;17.53;8.20;;;;;;;17.41;46.10;101252.47;4892375;29;20665;-72
2024/01/09 07:24:24;;;;;;;13.40;8.07;;;;;;;17.43;46.05;101265.19;4910406;29;20220;-72
2024/01/09 07:26:50;;;;;;;15.13;7.10;;;;;;;17.42;46.19;101257.81;4912034;29;20218;-72
2024/01/09 07:29:17;;;;;;;26.77;7.60;;;;;;;17.45;46.13;101264.84;4898155;29;20215;-72
2024/01/09 07:31:43;;;;;;;20.23;7.00;;;;;;;17.38;46.72;101264.53;4900549;29;20207;-73
2024/01/09 07:34:09;;;;;;;15.70;7.17;;;;;;;17.42;46.19;101272.09;4896258;29;20520;-72
2024/01/09 07:36:34;;;;;;;13.33;7.03;;;;;;;17.44;46.09;101272.56;4901158;29;20212;-73
2024/01/09 07:38:59;;;;;;;18.40;7.57;;;;;;;17.46;45.78;101273.03;4872442;29;20203;-72
2024/01/09 07:41:25;;;;;;;13.70;8.10;;;;;;;17.40;46.43;101271.59;4895726;29;20204;-72
2024/01/09 07:43:50;;;;;;;17.53;7.03;;;;;;;17.41;46.42;101270.41;4895641;29;20204;-72
2024/01/09 07:46:17;;;;;;;15.50;6.60;;;;;;;17.44;46.34;101271.72;4888264;29;20294;-72
2024/01/09 07:48:43;;;;;;;12.90;7.23;;;;;;;17.41;46.61;101276.09;4897926;28;20618;-72
2024/01/09 07:51:08;;;;;;;14.97;7.00;;;;;;;17.40;46.79;101274.44;4907350;28;20635;-73
2024/01/09 07:53:34;;;;;;;14.20;7.00;;;;;;;17.42;46.80;101272.09;4950471;28;20202;-72
2024/01/09 07:56:00;;;;;;;23.70;8.20;;;;;;;17.44;46.65;101280.28;4931685;28;20201;-73
2024/01/09 07:58:25;;;;;;;16.03;7.00;;;;;;;17.42;46.65;101292.06;4935526;28;20229;-72
2024/01/09 08:00:51;;;;;;;15.73;7.40;;;;;;;17.42;46.13;101279.81;4949490;28;20241;-72
2024/01/09 08:03:16;;;;;;;17.80;7.07;;;;;;;17.41;46.79;101292.41;4934004;28;20202;-72
2024/01/09 08:05:41;;;;;;;14.30;6.57;;;;;;;17.44;46.58;101278.28;4950393;28;20210;-72
2024/01/09 08:08:07;;;;;;;11.73;6.73;;;;;;;17.43;46.06;101282.31;4947494;28;20207;-72
2024/01/09 08:10:32;;;;;;;19.80;7.37;;;;;;;17.42;46.06;101292.06;4946446;28;20238;-72
2024/01/09 08:12:58;;;;;;;18.03;7.60;;;;;;;17.37;46.53;101269.44;4947284;28;20205;-72
2024/01/09 08:15:24;;;;;;;17.07;7.53;;;;;;;17.39;46.18;101281.34;4939675;28;20218;-72
2024/01/09 08:17:49;;;;;;;14.00;7.60;;;;;;;17.40;46.27;101268.75;4968349;28;20555;-72
2024/01/09 08:20:15;;;;;;;14.50;7.63;;;;;;;17.39;46.64;101272.78;4937953;28;20222;-72
2024/01/09 08:22:41;;;;;;;16.80;7.67;;;;;;;17.40;46.13;101279.34;4924250;28;20676;-72
2024/01/09 08:25:06;;;;;;;14.30;6.83;;;;;;;17.46;46.46;101277.94;4958822;28;20263;-70
2024/01/09 08:27:32;;;;;;;17.57;7.60;;;;;;;17.44;46.29;101278.28;4946115;29;20282;-70
2024/01/09 08:29:57;;;;;;;17.43;7.40;;;;;;;17.42;46.30;101269.25;4935489;28;20258;-71
2024/01/09 08:32:23;;;;;;;20.33;8.23;;;;;;;17.47;46.36;101274.75;4932100;28;20736;-71
2024/01/09 08:34:49;;;;;;;14.70;7.13;;;;;;;17.48;46.04;101273.53;4938535;28;20562;-71
2024/01/09 08:37:14;;;;;;;19.10;7.70;;;;;;;17.49;46.05;101274.34;4955689;28;20217;-70
2024/01/09 08:39:39;;;;;;;12.97;7.07;;;;;;;17.43;46.03;101270.91;4945934;28;20274;-70
2024/01/09 08:42:05;;;;;;;17.63;8.27;;;;;;;17.43;46.29;101288.03;4942772;28;20258;-70
2024/01/09 08:44:31;;;;;;;18.83;9.13;;;;;;;17.17;43.21;101275.97;4955179;28;20273;-71
2024/01/09 08:46:56;;;;;;;20.63;11.97;;;;;;;14.51;35.73;101283.84;4957807;28;20223;-71
2024/01/09 08:49:22;;;;;;;17.50;12.57;;;;;;;13.60;33.88;101290.38;4931967;28;20242;-71
2024/01/09 08:51:47;;;;;;;22.03;13.03;;;;;;;13.88;31.81;101291.06;4927644;28;20213;-72
2024/01/09 08:54:13;;;;;;;23.50;14.33;;;;;;;13.76;31.43;101293.66;4940564;28;20862;-72
2024/01/09 08:56:39;;;;;;;20.23;13.20;;;;;;;15.75;30.26;101286.56;4936721;28;20203;-72
2024/01/09 08:59:07;;;;;;;21.73;13.13;;;;;;;17.52;29.14;101283.09;4930166;28;20454;-76
2024/01/09 09:01:35;;;;;;;21.70;12.97;;;;;;;18.57;29.44;101278.31;4938124;28;20218;-74
2024/01/09 09:04:02;;;;;;;23.23;12.33;;;;;;;19.08;30.38;101277.56;4948206;28;20449;-77
2024/01/09 09:06:27;;;;;;;22.83;12.07;;;;;;;18.91;32.46;101277.81;4936764;28;20454;-76
2024/01/09 09:08:53;;;;;;;21.33;11.67;;;;;;;19.51;33.27;101266.22;4929589;28;20478;-72
2024/01/09 09:11:18;;;;;;;20.27;10.90;;;;;;;19.76;33.91;101275.56;4934272;29;20220;-73
2024/01/09 09:13:44;;;;;;;17.23;10.03;;;;;;;19.86;35.17;101267.25;4937266;28;20217;-73
2024/01/09 09:16:09;;;;;;;17.33;9.73;;;;;;;19.68;35.93;101274.53;4931836;28;20199;-75
2024/01/09 09:18:35;;;;;;;19.40;9.90;;;;;;;19.73;36.97;101282.00;4952873;28;20682;-74
2024/01/09 09:21:03;;;;;;;18.10;9.83;;;;;;;19.61;37.26;101284.94;4924271;28;20198;-71
2024/01/09 09:23:30;;;;;;;16.60;9.47;;;;;;;19.06;38.23;101282.78;4934238;28;20287;-74
2024/01/09 09:25:56;;;;;;;18.27;9.80;;;;;;;19.31;37.75;101280.75;4916586;28;20564;-74
2024/01/09 09:28:22;;;;;;;16.00;9.03;;;;;;;19.20;38.14;101288.97;4951487;28;20449;-75
2024/01/09 09:30:47;;;;;;;16.77;9.00;;;;;;;18.81;38.75;101284.03;4935865;28;20205;-74
2024/01/09 09:33:12;;;;;;;17.30;9.10;;;;;;;19.13;39.36;101291.63;4936488;28;20265;-74
2024/01/09 09:35:38;;;;;;;16.10;9.50;;;;;;;18.90;39.69;101295.34;4953447;28;20785;-75
2024/01/09 09:38:04;;;;;;;19.70;9.07;;;;;;;18.89;40.57;101282.22;4933530;29;20202;-74
2024/01/09 09:40:29;;;;;;;15.27;9.27;;;;;;;18.79;40.38;101279.84;4934708;29;20225;-73
2024/01/09 09:42:58;;;;;;;18.40;9.50;;;;;;;18.63;41.10;101288.34;4933859;28;20457;-73
2024/01/09 09:45:25;;;;;;;21.33;9.30;;;;;;;18.47;42.25;101283.69;4947001;28;20229;-74
2024/01/09 09:47:51;;;;;;;18.33;8.07;;;;;;;18.33;42.61;101289.75;4952076;28;20453;-73
2024/01/09 09:50:16;;;;;;;15.43;8.40;;;;;;;18.37;42.99;101290.69;4944626;28;20848;-74
2024/01/09 09:52:42;;;;;;;15.77;8.50;;;;;;;18.36;43.19;101288.22;4940874;28;20443;-69
2024/01/09 09:55:08;;;;;;;17.93;8.17;;;;;;;18.28;43.38;101291.97;4949797;28;20461;-71
2024/01/09 09:57:34;;;;;;;22.73;8.80;;;;;;;18.15;43.18;101287.41;4930892;29;20219;-72
2024/01/09 09:59:59;;;;;;;13.20;8.20;;;;;;;18.12;42.98;101277.53;4926141;29;20454;-71
2024/01/09 10:02:25;;;;;;;12.53;8.13;;;;;;;18.05;42.66;101256.44;4916976;29;20207;-71
2024/01/09 10:04:53;;;;;;;16.70;8.80;;;;;;;18.07;43.01;101268.38;4932786;29;20214;-73
2024/01/09 10:07:22;;;;;;;15.00;8.90;;;;;;;18.02;42.87;101277.97;4932477;29;20207;-74
2024/01/09 10:09:51;;;;;;;18.37;9.80;;;;;;;17.92;43.34;101269.03;4929857;28;20444;-73
2024/01/09 10:12:19;;;;;;;15.67;9.37;;;;;;;17.91;43.30;101270.25;4922697;29;20463;-72
2024/01/09 10:15:07;;;;;;;18.07;8.30;;;;;;;17.91;43.35;101271.06;4923873;29;20502;-73
2024/01/09 10:17:33;;;;;;;18.83;8.93;;;;;;;17.95;44.10;101276.88;4942163;28;20969;-71
2024/01/09 10:19:59;;;;;;;20.63;8.43;;;;;;;17.89;44.17;101269.75;4903898;29;20443;-70
2024/01/09 10:22:28;;;;;;;13.37;8.10;;;;;;;17.88;44.19;101266.06;4916869;29;20518;-71
2024/01/09 10:24:53;;;;;;;22.37;9.77;;;;;;;17.86;44.10;101268.44;4931506;28;20478;-74
2024/01/09 10:27:19;;;;;;;19.50;9.03;;;;;;;17.84;43.83;101264.25;4906346;28;20455;-72
2024/01/09 10:29:45;;;;;;;20.60;9.07;;;;;;;17.84;44.02;101262.25;4901702;29;20207;-72
2024/01/09 10:32:13;;;;;;;23.40;8.23;;;;;;;17.91;45.73;101259.63;4932169;29;20478;-71
2024/01/09 10:34:39;;;;;;;21.63;9.00;;;;;;;17.93;46.08;101253.56;4909968;29;20215;-70
2024/01/09 10:37:08;;;;;;;21.93;8.83;;;;;;;17.91;46.40;101253.91;4908259;28;20462;-71
2024/01/09 10:39:33;;;;;;;22.73;8.10;;;;;;;17.99;46.29;101255.00;4916758;28;20210;-72
2024/01/09 10:42:09;;;;;;;19.10;8.57;;;;;;;18.05;46.72;101259.28;4933941;29;20923;-70
2024/01/09 10:44:35;;;;;;;22.93;8.33;;;;;;;18.10;46.02;101251.34;4932776;29;20215;-73
2024/01/09 10:47:00;;;;;;;22.20;8.30;;;;;;;18.07;45.89;101246.31;4948510;28;20530;-76
2024/01/09 10:49:26;;;;;;;20.73;8.03;;;;;;;18.15;45.72;101242.53;4929287;29;20483;-76
2024/01/09 10:51:52;;;;;;;17.07;7.70;;;;;;;18.11;46.16;101253.00;4931455;28;20241;-76
2024/01/09 10:54:18;;;;;;;15.83;7.13;;;;;;;18.17;45.65;101248.72;4944806;28;20210;-76
2024/01/09 10:56:44;;;;;;;18.80;7.60;;;;;;;18.10;46.21;101239.91;4918723;28;21016;-76
2024/01/09 10:59:11;;;;;;;19.73;7.63;;;;;;;18.06;45.81;101240.97;4931408;29;20567;-76
2024/01/09 11:01:36;;;;;;;17.73;7.77;;;;;;;18.06;46.14;101230.38;4929129;29;20598;-74
2024/01/09 11:04:02;;;;;;;17.50;6.87;;;;;;;18.07;46.09;101246.31;4931968;29;20526;-76
2024/01/09 11:06:27;;;;;;;13.10;7.20;;;;;;;18.07;46.50;101240.59;4948072;28;20199;-76
2024/01/09 11:08:55;;;;;;;26.93;7.57;;;;;;;18.08;46.42;101236.59;4914279;29;20257;-76
2024/01/09 11:11:21;;;;;;;15.30;7.63;;;;;;;18.09;46.59;101237.41;4949360;28;20705;-75